sensor_id;sensor_type;location;lat;lon;timestamp;pressure;altitude;pressure_sealevel;temperature;humidity
59608;BME280;45426;44.726;10.390;2023-03-14T00:00:06;99874.94;;;12.04;100.00
59608;BME280;45426;44.726;10.390;2023-03-14T00:02:33;99873.91;;;11.93;100.00
59608;BME280;45426;44.726;10.390;2023-03-14T00:04:58;99871.78;;;11.87;100.00
59608;BME280;45426;44.726;10.390;2023-03-14T00:07:24;99838.56;;;11.97;100.00
59608;BME280;45426;44.726;10.390;2023-03-14T00:09:53;99848.28;;;11.62;100.00
59608;BME280;45426;44.726;10.390;2023-03-14T00:12:19;99823.69;;;11.75;100.00
59608;BME280;45426;44.726;10.390;2023-03-14T00:14:44;99819.13;;;11.63;100.00
59608;BME280;45426;44.726;10.390;2023-03-14T00:17:09;99830.00;;;11.79;100.00
59608;BME280;45426;44.726;10.390;2023-03-14T00:19:35;99833.91;;;11.62;100.00
59608;BME280;45426;44.726;10.390;2023-03-14T00:22:00;99823.81;;;11.46;100.00
59608;BME280;45426;44.726;10.390;2023-03-14T00:24:25;99820.69;;;11.80;100.00
59608;BME280;45426;44.726;10.390;2023-03-14T00:26:51;99817.31;;;11.67;100.00
59608;BME280;45426;44.726;10.390;2023-03-14T00:29:16;99813.22;;;11.93;100.00
59608;BME280;45426;44.726;10.390;2023-03-14T00:31:42;99805.00;;;12.09;100.00
59608;BME280;45426;44.726;10.390;2023-03-14T00:34:07;99785.00;;;12.01;100.00
59608;BME280;45426;44.726;10.390;2023-03-14T00:36:32;99788.28;;;11.91;100.00
59608;BME280;45426;44.726;10.390;2023-03-14T00:38:58;99765.16;;;12.20;100.00
59608;BME280;45426;44.726;10.390;2023-03-14T00:41:23;99762.50;;;12.23;100.00
59608;BME280;45426;44.726;10.390;2023-03-14T00:43:50;99751.28;;;11.70;100.00
59608;BME280;45426;44.726;10.390;2023-03-14T00:46:16;99747.97;;;11.61;100.00
59608;BME280;45426;44.726;10.390;2023-03-14T00:48:41;99764.34;;;11.29;100.00
59608;BME280;45426;44.726;10.390;2023-03-14T00:51:08;99746.56;;;11.67;100.00
59608;BME280;45426;44.726;10.390;2023-03-14T00:53:38;99733.19;;;11.42;100.00
59608;BME280;45426;44.726;10.390;2023-03-14T00:56:05;99748.75;;;11.26;100.00
59608;BME280;45426;44.726;10.390;2023-03-14T00:58:31;99745.09;;;11.54;100.00
59608;BME280;45426;44.726;10.390;2023-03-14T01:00:57;99757.88;;;11.34;100.00
59608;BME280;45426;44.726;10.390;2023-03-14T01:03:22;99742.72;;;11.01;100.00
59608;BME280;45426;44.726;10.390;2023-03-14T01:05:49;99745.00;;;11.15;100.00
59608;BME280;45426;44.726;10.390;2023-03-14T01:08:15;99749.97;;;11.13;100.00
59608;BME280;45426;44.726;10.390;2023-03-14T01:10:41;99738.66;;;11.11;100.00
59608;BME280;45426;44.726;10.390;2023-03-14T01:13:07;99744.31;;;11.02;100.00
59608;BME280;45426;44.726;10.390;2023-03-14T01:15:34;99754.41;;;11.53;100.00
59608;BME280;45426;44.726;10.390;2023-03-14T01:17:59;99764.81;;;11.15;100.00
59608;BME280;45426;44.726;10.390;2023-03-14T01:20:25;99763.38;;;11.21;100.00
59608;BME280;45426;44.726;10.390;2023-03-14T01:22:50;99736.47;;;11.32;100.00
59608;BME280;45426;44.726;10.390;2023-03-14T01:25:16;99750.25;;;11.07;100.00
59608;BME280;45426;44.726;10.390;2023-03-14T01:27:42;99738.41;;;11.16;100.00
59608;BME280;45426;44.726;10.390;2023-03-14T01:30:09;99761.66;;;11.13;100.00
59608;BME280;45426;44.726;10.390;2023-03-14T01:32:35;99758.03;;;11.25;100.00
59608;BME280;45426;44.726;10.390;2023-03-14T01:35:01;99746.91;;;11.30;100.00
59608;BME280;45426;44.726;10.390;2023-03-14T01:37:26;99744.28;;;11.18;100.00
59608;BME280;45426;44.726;10.390;2023-03-14T01:39:52;99739.94;;;11.49;100.00
59608;BME280;45426;44.726;10.390;2023-03-14T01:42:17;99720.84;;;11.29;100.00
59608;BME280;45426;44.726;10.390;2023-03-14T01:44:56;99713.13;;;11.31;100.00
59608;BME280;45426;44.726;10.390;2023-03-14T01:47:22;99695.91;;;11.43;100.00
59608;BME280;45426;44.726;10.390;2023-03-14T01:50:08;99700.69;;;11.30;100.00
59608;BME280;45426;44.726;10.390;2023-03-14T01:52:36;99701.72;;;11.61;100.00
59608;BME280;45426;44.726;10.390;2023-03-14T01:55:09;99687.75;;;11.43;100.00
59608;BME280;45426;44.726;10.390;2023-03-14T01:57:41;99674.53;;;11.25;100.00
59608;BME280;45426;44.726;10.390;2023-03-14T02:00:13;99675.19;;;11.38;100.00
59608;BME280;45426;44.726;10.390;2023-03-14T02:02:41;99672.56;;;11.61;100.00
59608;BME280;45426;44.726;10.390;2023-03-14T02:05:10;99671.50;;;11.66;100.00
59608;BME280;45426;44.726;10.390;2023-03-14T02:07:45;99647.91;;;11.90;100.00
59608;BME280;45426;44.726;10.390;2023-03-14T02:10:12;99642.72;;;11.45;100.00
59608;BME280;45426;44.726;10.390;2023-03-14T02:12:39;99653.09;;;11.04;100.00
59608;BME280;45426;44.726;10.390;2023-03-14T02:15:04;99647.84;;;11.31;100.00
59608;BME280;45426;44.726;10.390;2023-03-14T02:17:30;99639.00;;;11.54;100.00
59608;BME280;45426;44.726;10.390;2023-03-14T02:22:38;99626.97;;;11.35;100.00
59608;BME280;45426;44.726;10.390;2023-03-14T02:25:31;99639.28;;;11.68;100.00
59608;BME280;45426;44.726;10.390;2023-03-14T02:28:00;99610.34;;;11.79;100.00
59608;BME280;45426;44.726;10.390;2023-03-14T02:30:29;99615.66;;;11.33;100.00
59608;BME280;45426;44.726;10.390;2023-03-14T02:32:59;99655.47;;;10.90;100.00
59608;BME280;45426;44.726;10.390;2023-03-14T02:35:28;99601.56;;;10.92;100.00
59608;BME280;45426;44.726;10.390;2023-03-14T02:38:03;99613.69;;;11.14;100.00
59608;BME280;45426;44.726;10.390;2023-03-14T02:40:32;99609.94;;;11.19;100.00
59608;BME280;45426;44.726;10.390;2023-03-14T02:42:57;99597.38;;;10.95;100.00
59608;BME280;45426;44.726;10.390;2023-03-14T02:45:34;99595.69;;;10.90;100.00
59608;BME280;45426;44.726;10.390;2023-03-14T02:48:04;99607.81;;;10.77;100.00
59608;BME280;45426;44.726;10.390;2023-03-14T02:50:33;99599.38;;;10.31;100.00
59608;BME280;45426;44.726;10.390;2023-03-14T02:52:59;99558.09;;;10.92;100.00
59608;BME280;45426;44.726;10.390;2023-03-14T02:55:24;99597.44;;;10.98;100.00
59608;BME280;45426;44.726;10.390;2023-03-14T02:57:52;99591.53;;;10.77;100.00
59608;BME280;45426;44.726;10.390;2023-03-14T03:00:17;99572.69;;;11.03;100.00
59608;BME280;45426;44.726;10.390;2023-03-14T03:02:43;99621.63;;;10.68;100.00
59608;BME280;45426;44.726;10.390;2023-03-14T03:05:08;99556.78;;;11.41;100.00
59608;BME280;45426;44.726;10.390;2023-03-14T03:07:34;99579.69;;;10.85;100.00
59608;BME280;45426;44.726;10.390;2023-03-14T03:10:00;99561.91;;;11.46;100.00
59608;BME280;45426;44.726;10.390;2023-03-14T03:12:25;99557.66;;;11.68;100.00
59608;BME280;45426;44.726;10.390;2023-03-14T03:14:51;99552.59;;;11.27;100.00
59608;BME280;45426;44.726;10.390;2023-03-14T03:17:16;99554.53;;;11.66;100.00
59608;BME280;45426;44.726;10.390;2023-03-14T03:19:43;99542.66;;;11.55;100.00
59608;BME280;45426;44.726;10.390;2023-03-14T03:22:08;99518.91;;;11.32;100.00
59608;BME280;45426;44.726;10.390;2023-03-14T03:24:34;99521.06;;;11.23;100.00
59608;BME280;45426;44.726;10.390;2023-03-14T03:26:59;99531.72;;;11.74;100.00
59608;BME280;45426;44.726;10.390;2023-03-14T03:29:24;99524.91;;;11.22;100.00
59608;BME280;45426;44.726;10.390;2023-03-14T03:31:50;99516.91;;;11.29;100.00
59608;BME280;45426;44.726;10.390;2023-03-14T03:34:15;99513.69;;;11.23;100.00
59608;BME280;45426;44.726;10.390;2023-03-14T03:36:41;99528.22;;;11.31;100.00
59608;BME280;45426;44.726;10.390;2023-03-14T03:39:06;99517.81;;;10.78;100.00
59608;BME280;45426;44.726;10.390;2023-03-14T03:41:32;99526.34;;;11.55;100.00
59608;BME280;45426;44.726;10.390;2023-03-14T03:43:58;99529.78;;;10.93;100.00
59608;BME280;45426;44.726;10.390;2023-03-14T03:46:24;99506.16;;;10.78;100.00
59608;BME280;45426;44.726;10.390;2023-03-14T03:48:59;99496.94;;;10.63;100.00
59608;BME280;45426;44.726;10.390;2023-03-14T03:51:25;99455.78;;;10.45;100.00
59608;BME280;45426;44.726;10.390;2023-03-14T03:53:50;99365.97;;;10.34;100.00
59608;BME280;45426;44.726;10.390;2023-03-14T03:56:16;99382.38;;;10.06;100.00
59608;BME280;45426;44.726;10.390;2023-03-14T03:58:41;99412.41;;;10.13;100.00
59608;BME280;45426;44.726;10.390;2023-03-14T04:01:07;99413.34;;;10.37;100.00
59608;BME280;45426;44.726;10.390;2023-03-14T04:03:33;99401.13;;;10.11;100.00
59608;BME280;45426;44.726;10.390;2023-03-14T04:06:03;99381.78;;;9.97;100.00
59608;BME280;45426;44.726;10.390;2023-03-14T04:08:29;99381.78;;;9.97;100.00
59608;BME280;45426;44.726;10.390;2023-03-14T04:10:59;99399.81;;;10.05;100.00
59608;BME280;45426;44.726;10.390;2023-03-14T04:13:26;99365.88;;;9.95;100.00
59608;BME280;45426;44.726;10.390;2023-03-14T04:15:52;99364.72;;;10.12;100.00
59608;BME280;45426;44.726;10.390;2023-03-14T04:18:18;99368.28;;;10.16;100.00
59608;BME280;45426;44.726;10.390;2023-03-14T04:20:43;99357.09;;;10.02;100.00
59608;BME280;45426;44.726;10.390;2023-03-14T04:23:09;99355.22;;;9.86;100.00
59608;BME280;45426;44.726;10.390;2023-03-14T04:25:34;99361.78;;;9.85;100.00
59608;BME280;45426;44.726;10.390;2023-03-14T04:28:00;99401.69;;;10.75;100.00
59608;BME280;45426;44.726;10.390;2023-03-14T04:30:26;99428.78;;;11.11;100.00
59608;BME280;45426;44.726;10.390;2023-03-14T04:32:51;99422.84;;;11.48;100.00
59608;BME280;45426;44.726;10.390;2023-03-14T04:35:17;99398.66;;;11.19;100.00
59608;BME280;45426;44.726;10.390;2023-03-14T04:37:42;99335.34;;;11.19;100.00
59608;BME280;45426;44.726;10.390;2023-03-14T04:40:09;99335.59;;;10.48;100.00
59608;BME280;45426;44.726;10.390;2023-03-14T04:42:35;99296.00;;;10.47;100.00
59608;BME280;45426;44.726;10.390;2023-03-14T04:45:01;99256.63;;;9.79;100.00
59608;BME280;45426;44.726;10.390;2023-03-14T04:47:26;99275.38;;;9.87;100.00
59608;BME280;45426;44.726;10.390;2023-03-14T04:49:52;99269.91;;;9.84;100.00
59608;BME280;45426;44.726;10.390;2023-03-14T04:52:17;99292.13;;;9.89;100.00
59608;BME280;45426;44.726;10.390;2023-03-14T04:54:43;99270.22;;;10.18;100.00
59608;BME280;45426;44.726;10.390;2023-03-14T04:57:08;99277.16;;;10.35;100.00
59608;BME280;45426;44.726;10.390;2023-03-14T04:59:34;99233.97;;;10.49;100.00
59608;BME280;45426;44.726;10.390;2023-03-14T05:01:59;99209.38;;;10.61;100.00
59608;BME280;45426;44.726;10.390;2023-03-14T05:04:25;99234.63;;;10.85;100.00
59608;BME280;45426;44.726;10.390;2023-03-14T05:06:50;99227.41;;;10.50;100.00
59608;BME280;45426;44.726;10.390;2023-03-14T05:09:15;99284.72;;;10.45;100.00
59608;BME280;45426;44.726;10.390;2023-03-14T05:11:41;99322.97;;;10.36;100.00
59608;BME280;45426;44.726;10.390;2023-03-14T05:14:06;99300.28;;;10.09;100.00
59608;BME280;45426;44.726;10.390;2023-03-14T05:16:32;99296.88;;;10.51;100.00
59608;BME280;45426;44.726;10.390;2023-03-14T05:18:57;99346.47;;;10.48;100.00
59608;BME280;45426;44.726;10.390;2023-03-14T05:21:23;99348.00;;;10.88;100.00
59608;BME280;45426;44.726;10.390;2023-03-14T05:23:48;99355.44;;;10.91;100.00
59608;BME280;45426;44.726;10.390;2023-03-14T05:26:13;99346.59;;;10.36;100.00
59608;BME280;45426;44.726;10.390;2023-03-14T05:28:41;99369.63;;;10.42;100.00
59608;BME280;45426;44.726;10.390;2023-03-14T05:31:07;99391.69;;;10.40;100.00
59608;BME280;45426;44.726;10.390;2023-03-14T05:33:33;99360.09;;;10.71;100.00
59608;BME280;45426;44.726;10.390;2023-03-14T05:35:58;99369.75;;;10.49;100.00
59608;BME280;45426;44.726;10.390;2023-03-14T05:38:24;99401.56;;;10.87;100.00
59608;BME280;45426;44.726;10.390;2023-03-14T05:40:49;99419.00;;;10.86;100.00
59608;BME280;45426;44.726;10.390;2023-03-14T05:43:15;99418.78;;;10.95;100.00
59608;BME280;45426;44.726;10.390;2023-03-14T05:45:41;99412.53;;;11.14;100.00
59608;BME280;45426;44.726;10.390;2023-03-14T05:48:07;99401.00;;;10.78;100.00
59608;BME280;45426;44.726;10.390;2023-03-14T05:50:33;99392.78;;;10.55;100.00
59608;BME280;45426;44.726;10.390;2023-03-14T05:52:58;99412.56;;;10.56;100.00
59608;BME280;45426;44.726;10.390;2023-03-14T05:55:24;99396.97;;;10.53;100.00
59608;BME280;45426;44.726;10.390;2023-03-14T05:57:49;99382.91;;;10.47;100.00
59608;BME280;45426;44.726;10.390;2023-03-14T06:00:15;99405.91;;;10.34;100.00
59608;BME280;45426;44.726;10.390;2023-03-14T06:02:41;99422.16;;;10.49;100.00
59608;BME280;45426;44.726;10.390;2023-03-14T06:05:07;99413.94;;;10.85;100.00
59608;BME280;45426;44.726;10.390;2023-03-14T06:07:32;99394.66;;;10.51;100.00
59608;BME280;45426;44.726;10.390;2023-03-14T06:09:58;99409.94;;;10.79;100.00
59608;BME280;45426;44.726;10.390;2023-03-14T06:12:24;99403.59;;;11.14;100.00
59608;BME280;45426;44.726;10.390;2023-03-14T06:14:49;99383.75;;;10.90;100.00
59608;BME280;45426;44.726;10.390;2023-03-14T06:17:15;99367.91;;;10.73;100.00
59608;BME280;45426;44.726;10.390;2023-03-14T06:19:40;99364.06;;;10.74;100.00
59608;BME280;45426;44.726;10.390;2023-03-14T06:22:05;99374.47;;;10.91;100.00
59608;BME280;45426;44.726;10.390;2023-03-14T06:24:31;99365.63;;;11.17;100.00
59608;BME280;45426;44.726;10.390;2023-03-14T06:26:56;99360.94;;;10.75;100.00
59608;BME280;45426;44.726;10.390;2023-03-14T06:29:21;99362.66;;;11.26;100.00
59608;BME280;45426;44.726;10.390;2023-03-14T06:31:47;99352.50;;;11.23;100.00
59608;BME280;45426;44.726;10.390;2023-03-14T06:34:12;99342.81;;;11.25;100.00
59608;BME280;45426;44.726;10.390;2023-03-14T06:36:39;99348.91;;;10.96;100.00
59608;BME280;45426;44.726;10.390;2023-03-14T06:39:04;99342.66;;;10.53;100.00
59608;BME280;45426;44.726;10.390;2023-03-14T06:41:30;99364.28;;;10.29;100.00
59608;BME280;45426;44.726;10.390;2023-03-14T06:43:55;99358.59;;;11.16;100.00
59608;BME280;45426;44.726;10.390;2023-03-14T06:46:20;99366.84;;;10.58;100.00
59608;BME280;45426;44.726;10.390;2023-03-14T06:48:46;99354.41;;;10.99;100.00
59608;BME280;45426;44.726;10.390;2023-03-14T06:51:11;99340.88;;;10.60;100.00
59608;BME280;45426;44.726;10.390;2023-03-14T06:53:37;99350.00;;;11.14;100.00
59608;BME280;45426;44.726;10.390;2023-03-14T06:56:02;99367.81;;;10.69;100.00
59608;BME280;45426;44.726;10.390;2023-03-14T06:58:28;99358.88;;;10.49;100.00
59608;BME280;45426;44.726;10.390;2023-03-14T07:00:53;99345.53;;;10.40;100.00
59608;BME280;45426;44.726;10.390;2023-03-14T07:03:20;99340.59;;;10.85;100.00
59608;BME280;45426;44.726;10.390;2023-03-14T07:05:46;99333.00;;;10.75;100.00
59608;BME280;45426;44.726;10.390;2023-03-14T07:08:11;99343.72;;;10.87;100.00
59608;BME280;45426;44.726;10.390;2023-03-14T07:10:36;99337.03;;;10.61;100.00
59608;BME280;45426;44.726;10.390;2023-03-14T07:13:02;99355.44;;;10.72;100.00
59608;BME280;45426;44.726;10.390;2023-03-14T07:15:28;99357.59;;;10.43;100.00
59608;BME280;45426;44.726;10.390;2023-03-14T07:17:53;99360.63;;;10.57;100.00
59608;BME280;45426;44.726;10.390;2023-03-14T07:20:19;99361.34;;;10.19;100.00
59608;BME280;45426;44.726;10.390;2023-03-14T07:22:49;99365.84;;;10.46;100.00
59608;BME280;45426;44.726;10.390;2023-03-14T07:25:15;99350.16;;;10.79;100.00
59608;BME280;45426;44.726;10.390;2023-03-14T07:27:43;99340.03;;;10.99;100.00
59608;BME280;45426;44.726;10.390;2023-03-14T07:30:09;99339.25;;;10.36;100.00
59608;BME280;45426;44.726;10.390;2023-03-14T07:32:35;99350.00;;;10.72;100.00
59608;BME280;45426;44.726;10.390;2023-03-14T07:35:00;99316.03;;;14.16;100.00
59608;BME280;45426;44.726;10.390;2023-03-14T07:37:26;99282.44;;;16.42;100.00
59608;BME280;45426;44.726;10.390;2023-03-14T07:39:51;99302.25;;;13.32;100.00
59608;BME280;45426;44.726;10.390;2023-03-14T07:42:16;99265.78;;;19.86;100.00
59608;BME280;45426;44.726;10.390;2023-03-14T07:44:42;99260.88;;;16.44;100.00
59608;BME280;45426;44.726;10.390;2023-03-14T07:47:07;99256.75;;;21.11;100.00
59608;BME280;45426;44.726;10.390;2023-03-14T07:49:33;99266.25;;;19.14;100.00
59608;BME280;45426;44.726;10.390;2023-03-14T07:51:58;99283.59;;;16.38;100.00
59608;BME280;45426;44.726;10.390;2023-03-14T07:54:24;99265.31;;;18.12;100.00
59608;BME280;45426;44.726;10.390;2023-03-14T07:56:50;99264.44;;;17.46;100.00
59608;BME280;45426;44.726;10.390;2023-03-14T07:59:17;99266.84;;;16.21;100.00
59608;BME280;45426;44.726;10.390;2023-03-14T08:01:42;99271.19;;;16.89;100.00
59608;BME280;45426;44.726;10.390;2023-03-14T08:04:08;99260.06;;;20.17;100.00
59608;BME280;45426;44.726;10.390;2023-03-14T08:06:35;99266.38;;;21.52;100.00
59608;BME280;45426;44.726;10.390;2023-03-14T08:09:00;99266.41;;;21.82;100.00
59608;BME280;45426;44.726;10.390;2023-03-14T08:11:26;99266.38;;;17.91;100.00
59608;BME280;45426;44.726;10.390;2023-03-14T08:13:51;99268.06;;;16.87;100.00
59608;BME280;45426;44.726;10.390;2023-03-14T08:16:17;99263.78;;;17.73;100.00
59608;BME280;45426;44.726;10.390;2023-03-14T08:18:43;99254.78;;;16.78;100.00
59608;BME280;45426;44.726;10.390;2023-03-14T08:21:09;99257.56;;;17.65;100.00
59608;BME280;45426;44.726;10.390;2023-03-14T08:23:34;99265.25;;;16.94;100.00
59608;BME280;45426;44.726;10.390;2023-03-14T08:26:00;99270.97;;;14.80;100.00
59608;BME280;45426;44.726;10.390;2023-03-14T08:28:25;99260.16;;;16.33;100.00
59608;BME280;45426;44.726;10.390;2023-03-14T08:30:58;99251.31;;;17.64;100.00
59608;BME280;45426;44.726;10.390;2023-03-14T08:33:24;99262.34;;;15.53;100.00
59608;BME280;45426;44.726;10.390;2023-03-14T08:35:54;99269.88;;;16.45;100.00
59608;BME280;45426;44.726;10.390;2023-03-14T08:38:20;99249.72;;;18.05;100.00
59608;BME280;45426;44.726;10.390;2023-03-14T08:40:46;99267.72;;;15.97;100.00
59608;BME280;45426;44.726;10.390;2023-03-14T08:43:11;99264.06;;;17.82;100.00
59608;BME280;45426;44.726;10.390;2023-03-14T08:45:37;99260.06;;;18.24;100.00
59608;BME280;45426;44.726;10.390;2023-03-14T08:48:02;99273.75;;;16.51;100.00
59608;BME280;45426;44.726;10.390;2023-03-14T08:50:28;99261.59;;;18.29;100.00
59608;BME280;45426;44.726;10.390;2023-03-14T08:52:53;99277.25;;;18.01;100.00
59608;BME280;45426;44.726;10.390;2023-03-14T08:55:19;99276.59;;;16.29;100.00
59608;BME280;45426;44.726;10.390;2023-03-14T08:57:45;99274.28;;;16.21;100.00
59608;BME280;45426;44.726;10.390;2023-03-14T09:00:11;99280.34;;;15.44;100.00
59608;BME280;45426;44.726;10.390;2023-03-14T09:02:41;99284.22;;;14.71;100.00
59608;BME280;45426;44.726;10.390;2023-03-14T09:05:07;99286.22;;;15.21;100.00
59608;BME280;45426;44.726;10.390;2023-03-14T09:07:32;99290.53;;;15.04;100.00
59608;BME280;45426;44.726;10.390;2023-03-14T09:09:58;99301.25;;;14.35;100.00
59608;BME280;45426;44.726;10.390;2023-03-14T09:12:23;99293.28;;;13.94;100.00
59608;BME280;45426;44.726;10.390;2023-03-14T09:14:49;99279.56;;;14.86;100.00
59608;BME280;45426;44.726;10.390;2023-03-14T09:17:14;99280.75;;;15.03;100.00
59608;BME280;45426;44.726;10.390;2023-03-14T09:19:39;99281.16;;;15.23;100.00
59608;BME280;45426;44.726;10.390;2023-03-14T09:22:05;99293.63;;;15.20;100.00
59608;BME280;45426;44.726;10.390;2023-03-14T09:24:30;99298.09;;;14.26;100.00
59608;BME280;45426;44.726;10.390;2023-03-14T09:26:56;99298.31;;;14.91;100.00
59608;BME280;45426;44.726;10.390;2023-03-14T09:29:22;99290.53;;;15.04;100.00
59608;BME280;45426;44.726;10.390;2023-03-14T09:31:48;99298.22;;;14.59;100.00
59608;BME280;45426;44.726;10.390;2023-03-14T09:34:13;99318.59;;;14.86;100.00
59608;BME280;45426;44.726;10.390;2023-03-14T09:36:38;99320.91;;;14.70;100.00
59608;BME280;45426;44.726;10.390;2023-03-14T09:39:05;99328.78;;;14.89;100.00
59608;BME280;45426;44.726;10.390;2023-03-14T09:41:33;99329.59;;;15.08;100.00
59608;BME280;45426;44.726;10.390;2023-03-14T09:44:04;99335.03;;;14.93;100.00
59608;BME280;45426;44.726;10.390;2023-03-14T09:46:32;99348.16;;;14.45;100.00
59608;BME280;45426;44.726;10.390;2023-03-14T09:49:00;99342.44;;;14.82;100.00
59608;BME280;45426;44.726;10.390;2023-03-14T09:51:26;99330.00;;;15.21;100.00
59608;BME280;45426;44.726;10.390;2023-03-14T09:53:52;99338.19;;;15.10;100.00
59608;BME280;45426;44.726;10.390;2023-03-14T09:56:25;99336.22;;;15.00;100.00
59608;BME280;45426;44.726;10.390;2023-03-14T09:58:55;99330.75;;;15.00;100.00
59608;BME280;45426;44.726;10.390;2023-03-14T10:01:25;99325.28;;;15.50;100.00
59608;BME280;45426;44.726;10.390;2023-03-14T10:03:54;99316.31;;;15.64;100.00
59608;BME280;45426;44.726;10.390;2023-03-14T10:06:22;99323.31;;;15.68;100.00
59608;BME280;45426;44.726;10.390;2023-03-14T10:08:48;99325.66;;;15.09;100.00
59608;BME280;45426;44.726;10.390;2023-03-14T10:11:17;99313.19;;;15.58;100.00
59608;BME280;45426;44.726;10.390;2023-03-14T10:16:35;99301.47;;;15.50;100.00
59608;BME280;45426;44.726;10.390;2023-03-14T10:19:07;99315.50;;;15.63;100.00
59608;BME280;45426;44.726;10.390;2023-03-14T10:21:43;99320.88;;;16.14;100.00
59608;BME280;45426;44.726;10.390;2023-03-14T10:27:01;99321.34;;;16.90;100.00
59608;BME280;45426;44.726;10.390;2023-03-14T10:29:32;99314.34;;;17.34;100.00
59608;BME280;45426;44.726;10.390;2023-03-14T10:32:06;99309.09;;;17.54;100.00
59608;BME280;45426;44.726;10.390;2023-03-14T10:34:39;99301.06;;;17.74;100.00
59608;BME280;45426;44.726;10.390;2023-03-14T10:37:17;99290.09;;;18.08;100.00
59608;BME280;45426;44.726;10.390;2023-03-14T10:39:59;99289.53;;;17.48;100.00
59608;BME280;45426;44.726;10.390;2023-03-14T10:42:31;99283.84;;;17.70;100.00
59608;BME280;45426;44.726;10.390;2023-03-14T10:45:04;99276.59;;;19.30;100.00
59608;BME280;45426;44.726;10.390;2023-03-14T10:47:33;99259.50;;;19.42;100.00
59608;BME280;45426;44.726;10.390;2023-03-14T10:50:30;99261.75;;;19.00;100.00
59608;BME280;45426;44.726;10.390;2023-03-14T10:52:59;99248.97;;;18.90;100.00
59608;BME280;45426;44.726;10.390;2023-03-14T10:55:39;99246.31;;;18.55;100.00
59608;BME280;45426;44.726;10.390;2023-03-14T10:58:17;99228.66;;;18.26;100.00
59608;BME280;45426;44.726;10.390;2023-03-14T11:00:44;99228.06;;;18.38;100.00
59608;BME280;45426;44.726;10.390;2023-03-14T11:03:12;99218.41;;;19.51;100.00
59608;BME280;45426;44.726;10.390;2023-03-14T11:06:00;99224.72;;;18.54;100.00
59608;BME280;45426;44.726;10.390;2023-03-14T11:08:33;99226.53;;;16.81;100.00
59608;BME280;45426;44.726;10.390;2023-03-14T11:11:07;99232.03;;;16.81;100.00
59608;BME280;45426;44.726;10.390;2023-03-14T11:24:56;99205.13;;;19.03;100.00
59608;BME280;45426;44.726;10.390;2023-03-14T11:27:44;99208.63;;;19.03;100.00
59608;BME280;45426;44.726;10.390;2023-03-14T11:30:21;99214.69;;;18.40;100.00
59608;BME280;45426;44.726;10.390;2023-03-14T11:32:59;99216.94;;;17.07;100.00
59608;BME280;45426;44.726;10.390;2023-03-14T11:40:33;99219.81;;;16.97;100.00
59608;BME280;45426;44.726;10.390;2023-03-14T11:43:10;99209.41;;;17.19;100.00
59608;BME280;45426;44.726;10.390;2023-03-14T11:45:40;99211.94;;;17.75;100.00
59608;BME280;45426;44.726;10.390;2023-03-14T11:50:48;99187.13;;;17.85;100.00
59608;BME280;45426;44.726;10.390;2023-03-14T11:53:44;99186.56;;;18.79;100.00
59608;BME280;45426;44.726;10.390;2023-03-14T11:56:19;99175.72;;;18.72;100.00
59608;BME280;45426;44.726;10.390;2023-03-14T11:58:57;99177.88;;;18.85;100.00
59608;BME280;45426;44.726;10.390;2023-03-14T12:01:28;99168.84;;;18.57;100.00
59608;BME280;45426;44.726;10.390;2023-03-14T12:04:07;99169.09;;;19.37;100.00
59608;BME280;45426;44.726;10.390;2023-03-14T12:06:50;99169.72;;;18.77;100.00
59608;BME280;45426;44.726;10.390;2023-03-14T12:09:18;99157.47;;;19.49;100.00
59608;BME280;45426;44.726;10.390;2023-03-14T12:12:02;99156.22;;;18.36;100.00
59608;BME280;45426;44.726;10.390;2023-03-14T12:14:32;99162.38;;;18.94;100.00
59608;BME280;45426;44.726;10.390;2023-03-14T12:17:20;99151.03;;;19.36;100.00
59608;BME280;45426;44.726;10.390;2023-03-14T12:19:46;99152.59;;;20.13;100.00
59608;BME280;45426;44.726;10.390;2023-03-14T12:22:24;99152.53;;;20.17;100.00
59608;BME280;45426;44.726;10.390;2023-03-14T12:24:54;99152.50;;;19.81;100.00
59608;BME280;45426;44.726;10.390;2023-03-14T12:27:46;99152.28;;;17.79;100.00
59608;BME280;45426;44.726;10.390;2023-03-14T12:30:27;99150.91;;;17.60;100.00
59608;BME280;45426;44.726;10.390;2023-03-14T12:36:10;99148.75;;;18.36;100.00
59608;BME280;45426;44.726;10.390;2023-03-14T12:38:32;99158.13;;;18.12;100.00
59608;BME280;45426;44.726;10.390;2023-03-14T12:43:50;99153.81;;;17.80;100.00
59608;BME280;45426;44.726;10.390;2023-03-14T12:49:08;99147.28;;;16.98;100.00
59608;BME280;45426;44.726;10.390;2023-03-14T13:04:35;99138.66;;;18.53;100.00
59608;BME280;45426;44.726;10.390;2023-03-14T13:07:03;99136.34;;;18.24;100.00
59608;BME280;45426;44.726;10.390;2023-03-14T13:11:55;99144.25;;;18.73;100.00
59608;BME280;45426;44.726;10.390;2023-03-14T13:14:23;99137.69;;;19.74;100.00
59608;BME280;45426;44.726;10.390;2023-03-14T13:16:48;99142.22;;;19.01;100.00
59608;BME280;45426;44.726;10.390;2023-03-14T13:19:21;99137.56;;;18.74;100.00
59608;BME280;45426;44.726;10.390;2023-03-14T13:21:50;99143.59;;;17.80;100.00
59608;BME280;45426;44.726;10.390;2023-03-14T13:24:23;99138.91;;;17.81;100.00
59608;BME280;45426;44.726;10.390;2023-03-14T13:26:52;99132.69;;;17.77;100.00
59608;BME280;45426;44.726;10.390;2023-03-14T13:29:21;99135.00;;;18.36;100.00
59608;BME280;45426;44.726;10.390;2023-03-14T13:31:50;99125.94;;;19.10;100.00
59608;BME280;45426;44.726;10.390;2023-03-14T13:34:16;99124.19;;;19.80;100.00